LFKS 181630Z AUTO 13005KT 080V170 CAVOK 28/19 Q1008

ElémentsDécodage
LFKS Station météo située sur l'aérodrome de SOLENZARA
181630Z émis le 18 du mois à 16h30 UTC
AUTO Bulletin édité par un automate
13005KT vent du 130°, 05 noeuds
080V170 vent de direction variable entre 080° et 170°
CAVOK Ceiling And Visibility OK
- Visibilité de 10 Km ou plus
- Pas de nuage au-dessous de 1500m ou au-dessous de l'altitude minimale du secteur la plus élevée (si>1500m) et absence de CB
- pas de temps présent significatif
28/19 température 28°C, point de rosée 19°C
 soit une humidité relative de 58%
Q1008 la pression au niveau de la mer (QNH) est de 1008 hPa